Time;durP1;ratioP1;P1;durP2;ratioP2;P2;SDS_P1;SDS_P2;PMS_P1;PMS_P2;Temp;Humidity;BMP_temperature;BMP_pressure;BME280_temperature;BME280_humidity;BME280_pressure;Samples;Min_cycle;Max_cycle;Signal;HPM_P1;HPM_P2
2023/04/02 00:01:17;;;;;;;1.90;1.50;;;;;;;8.71;81.08;93776.31;6331589;22;20677;-84
2023/04/02 00:04:21;;;;;;;1.60;1.50;;;;;;;8.82;81.00;93775.50;6336201;22;20163;-84
2023/04/02 00:06:53;;;;;;;3.90;1.57;;;;;;;8.81;81.15;93777.28;6334616;22;20195;-85
2023/04/02 00:09:30;;;;;;;2.00;1.60;;;;;;;8.83;80.83;93769.31;6334348;22;20243;-84
2023/04/02 00:12:14;;;;;;;1.83;1.60;;;;;;;8.79;80.87;93768.97;6332363;22;20230;-85
2023/04/02 00:14:47;;;;;;;3.80;1.87;;;;;;;8.82;80.73;93771.09;6333292;22;20151;-84
2023/04/02 00:17:18;;;;;;;2.73;1.57;;;;;;;8.80;80.97;93767.16;6333003;22;20151;-85
2023/04/02 00:19:49;;;;;;;1.40;1.30;;;;;;;8.81;80.04;93763.53;6331810;22;20163;-84
2023/04/02 00:22:20;;;;;;;1.47;1.30;;;;;;;8.82;80.23;93771.09;6331843;22;20152;-86
2023/04/02 00:24:50;;;;;;;1.47;1.20;;;;;;;8.84;79.43;93771.66;6333259;22;20167;-86
2023/04/02 00:27:20;;;;;;;2.60;1.23;;;;;;;8.85;79.49;93762.09;6332109;22;20626;-86
2023/04/02 00:29:48;;;;;;;2.13;1.40;;;;;;;8.83;79.44;93759.72;6329881;22;20171;-86
2023/04/02 00:32:21;;;;;;;2.20;1.60;;;;;;;8.77;79.16;93747.69;6332349;22;20587;-86
2023/04/02 00:34:48;;;;;;;1.40;1.30;;;;;;;8.90;79.32;93762.19;6333300;22;20982;-87
2023/04/02 00:37:22;;;;;;;1.50;1.40;;;;;;;8.95;78.43;93762.28;6332363;22;20693;-87
2023/04/02 00:39:51;;;;;;;2.07;1.50;;;;;;;8.95;78.78;93764.84;6332803;22;20155;-86
2023/04/02 00:42:20;;;;;;;1.37;1.13;;;;;;;8.98;77.22;93754.81;6332323;22;20636;-86
2023/04/02 00:44:49;;;;;;;2.07;1.40;;;;;;;9.05;77.58;93749.53;6333025;22;20190;-86
2023/04/02 00:47:20;;;;;;;1.40;1.30;;;;;;;9.10;77.40;93752.19;6333132;22;20191;-87
2023/04/02 00:49:50;;;;;;;2.47;1.20;;;;;;;9.11;77.78;93761.56;6330993;22;20174;-87
2023/04/02 00:52:21;;;;;;;2.17;1.63;;;;;;;9.08;77.62;93755.03;6329082;22;20191;-87
2023/04/02 00:54:52;;;;;;;1.90;1.33;;;;;;;9.10;77.84;93759.97;6330989;22;20527;-86
2023/04/02 00:57:24;;;;;;;2.70;1.20;;;;;;;9.11;77.57;93764.94;6333948;22;20244;-87
2023/04/02 00:59:56;;;;;;;1.33;1.20;;;;;;;9.07;76.73;93757.84;6333950;22;20643;-86
2023/04/02 01:02:27;;;;;;;1.40;1.30;;;;;;;9.08;76.81;93764.63;6334013;22;20243;-87
2023/04/02 01:04:56;;;;;;;2.90;1.20;;;;;;;9.04;76.99;93761.69;6333736;22;20156;-86
2023/04/02 01:07:40;;;;;;;2.40;1.63;;;;;;;9.11;77.17;93764.94;6333151;22;20221;-86
2023/04/02 01:10:26;;;;;;;3.37;1.53;;;;;;;9.12;77.12;93761.31;6333524;22;20829;-86
2023/04/02 01:13:08;;;;;;;2.20;1.40;;;;;;;9.11;77.07;93759.75;6335242;22;20544;-86
2023/04/02 01:15:41;;;;;;;1.50;1.40;;;;;;;9.11;77.37;93764.94;6335060;22;20179;-87
2023/04/02 01:18:30;;;;;;;1.73;1.40;;;;;;;9.09;76.70;93761.00;6338862;22;20183;-86
2023/04/02 01:21:41;;;;;;;2.30;1.50;;;;;;;9.10;77.15;93763.34;6338869;22;20156;-84
2023/04/02 01:24:10;;;;;;;1.80;1.40;;;;;;;9.12;76.87;93769.09;6282656;22;20190;-84
2023/04/02 01:26:46;;;;;;;2.70;1.53;;;;;;;9.12;76.68;93768.28;6326729;22;20174;-85
2023/04/02 01:29:18;;;;;;;2.67;1.60;;;;;;;9.09;76.77;93761.00;6326242;22;20504;-84
2023/04/02 01:31:46;;;;;;;3.77;1.40;;;;;;;9.13;75.83;93760.31;6334323;22;20160;-85
2023/04/02 01:34:17;;;;;;;3.43;1.73;;;;;;;9.12;75.82;93763.91;6332185;22;20252;-85
2023/04/02 01:36:54;;;;;;;2.50;1.70;;;;;;;9.09;75.67;93772.16;6331787;22;20156;-85
2023/04/02 01:39:42;;;;;;;3.40;1.90;;;;;;;8.95;77.41;93772.63;6332002;22;20520;-86
2023/04/02 01:42:17;;;;;;;3.13;2.20;;;;;;;8.90;77.23;93772.53;6333731;22;20221;-86
2023/04/02 01:44:50;;;;;;;2.63;2.00;;;;;;;8.85;77.93;93770.66;6333688;22;20602;-84
2023/04/02 01:47:20;;;;;;;4.73;2.20;;;;;;;8.84;78.76;93774.25;6335510;22;20226;-84
2023/04/02 01:53:11;;;;;;;3.50;2.10;;;;;;;8.67;84.35;93755.25;6334336;22;20210;-84
2023/04/02 01:55:42;;;;;;;3.77;2.40;;;;;;;8.41;85.80;93755.72;6332751;22;20162;-84
2023/04/02 01:58:10;;;;;;;5.23;2.37;;;;;;;8.30;86.17;93759.13;6332485;22;20915;-83
2023/04/02 02:00:43;;;;;;;4.97;2.80;;;;;;;8.19;86.98;93749.53;6334056;22;20242;-85
2023/04/02 02:03:12;;;;;;;4.20;2.67;;;;;;;8.08;87.67;93752.91;6333977;22;20195;-85
2023/04/02 02:05:39;;;;;;;4.67;2.30;;;;;;;7.91;88.77;93748.38;6332219;22;20168;-84
2023/04/02 02:08:17;;;;;;;4.27;2.33;;;;;;;7.88;89.86;93750.63;6330358;22;20171;-85
2023/04/02 02:10:43;;;;;;;3.73;2.80;;;;;;;7.76;89.90;93745.44;6332141;22;20170;-85
2023/04/02 02:13:14;;;;;;;3.30;2.80;;;;;;;7.59;91.60;93748.91;6335150;22;20164;-85
2023/04/02 02:15:43;;;;;;;5.23;2.73;;;;;;;7.57;91.72;93746.53;6336328;22;20565;-87
2023/04/02 02:18:13;;;;;;;5.03;3.00;;;;;;;7.57;91.83;93756.88;6335174;22;20183;-84
2023/04/02 02:20:40;;;;;;;6.17;3.20;;;;;;;7.67;91.60;93751.97;6333318;22;20172;-84
2023/04/02 02:23:07;;;;;;;3.97;2.90;;;;;;;7.54;92.34;93754.72;6332610;22;20168;-84
2023/04/02 02:25:36;;;;;;;5.80;3.00;;;;;;;7.61;92.03;93752.84;6335187;22;20225;-84
2023/04/02 02:28:08;;;;;;;4.63;2.40;;;;;;;7.58;91.85;93752.50;6332199;22;20168;-86
2023/04/02 02:30:38;;;;;;;3.30;2.60;;;;;;;7.62;91.49;93758.81;6322305;22;20160;-86
2023/04/02 02:33:15;;;;;;;6.97;2.40;;;;;;;7.60;90.71;93750.47;6331534;22;20167;-85
2023/04/02 02:35:48;;;;;;;2.17;1.93;;;;;;;7.63;89.28;93760.38;6334088;22;20166;-86
2023/04/02 02:38:29;;;;;;;2.80;2.10;;;;;;;7.54;89.02;93759.91;6334205;22;20589;-85
2023/04/02 02:41:13;;;;;;;3.73;2.33;;;;;;;7.49;88.83;93762.34;6333354;22;20156;-86
2023/04/02 02:44:02;;;;;;;2.87;2.23;;;;;;;7.52;87.74;93759.34;6332288;22;20162;-90
2023/04/02 02:46:31;;;;;;;3.87;2.00;;;;;;;7.53;86.06;93750.59;6331393;22;20160;-86
2023/04/02 02:49:03;;;;;;;5.07;2.57;;;;;;;7.74;84.62;93757.81;6331073;22;20199;-84
2023/04/02 02:51:40;;;;;;;2.70;2.27;;;;;;;7.76;84.65;93749.84;6332010;22;20155;-85
2023/04/02 02:54:08;;;;;;;3.93;2.07;;;;;;;7.91;84.33;93757.94;6334098;22;20152;-85
2023/04/02 02:56:40;;;;;;;2.87;2.20;;;;;;;7.96;83.17;93739.97;6332287;22;21112;-84
2023/04/02 02:59:10;;;;;;;3.60;1.83;;;;;;;8.01;82.42;93755.59;6332246;22;20176;-85
2023/04/02 03:01:37;;;;;;;1.70;1.60;;;;;;;8.06;81.81;93750.53;6332048;22;20170;-86
2023/04/02 03:04:05;;;;;;;3.07;1.90;;;;;;;8.14;81.63;93747.59;6332187;22;20341;-84
2023/04/02 03:06:32;;;;;;;2.30;1.73;;;;;;;8.18;81.14;93750.53;6334109;22;20170;-86
2023/04/02 03:09:10;;;;;;;3.97;1.83;;;;;;;8.28;81.15;93755.97;6319864;22;20167;-78
2023/04/02 03:11:41;;;;;;;3.53;2.37;;;;;;;8.35;80.17;93760.00;6323049;22;20155;-77
2023/04/02 03:14:20;;;;;;;2.87;2.03;;;;;;;8.37;79.96;93757.19;6329684;22;20514;-77
2023/04/02 03:16:51;;;;;;;3.70;2.23;;;;;;;8.39;79.67;93766.31;6328473;22;20151;-77
2023/04/02 03:19:29;;;;;;;6.10;3.00;;;;;;;8.44;79.83;93763.84;6330217;22;20202;-76
2023/04/02 03:22:01;;;;;;;7.07;2.90;;;;;;;8.51;78.87;93769.66;6328443;22;20534;-78
2023/04/02 03:24:35;;;;;;;5.47;3.23;;;;;;;8.57;79.38;93772.38;6327247;22;20289;-77
2023/04/02 03:27:10;;;;;;;5.50;3.63;;;;;;;8.57;81.42;93766.16;6326265;22;20545;-77
2023/04/02 03:29:42;;;;;;;7.60;5.70;;;;;;;8.46;82.62;93766.97;6328248;22;20186;-77
2023/04/02 03:32:16;;;;;;;11.40;7.30;;;;;;;8.19;84.03;93765.06;6330462;22;21240;-77
2023/04/02 03:34:49;;;;;;;9.63;6.23;;;;;;;8.16;84.48;93768.09;6329250;22;20155;-77
2023/04/02 03:37:22;;;;;;;8.50;6.57;;;;;;;8.10;85.01;93772.38;6328461;22;20152;-78
2023/04/02 03:39:55;;;;;;;11.30;6.90;;;;;;;8.09;86.51;93762.22;6328759;22;20230;-78
2023/04/02 03:42:25;;;;;;;10.30;5.90;;;;;;;8.00;85.59;93759.19;6328996;22;20156;-78
2023/04/02 03:44:56;;;;;;;8.87;4.10;;;;;;;8.06;84.10;93766.03;6331177;22;20683;-78
2023/04/02 03:47:32;;;;;;;6.67;3.93;;;;;;;8.08;84.74;93765.84;6329255;22;20214;-78
2023/04/02 03:50:06;;;;;;;6.90;3.70;;;;;;;8.02;84.02;93766.72;6329003;22;20927;-78
2023/04/02 03:52:36;;;;;;;7.27;4.30;;;;;;;8.00;83.47;93759.97;6329004;22;20528;-78
2023/04/02 03:55:14;;;;;;;12.67;4.20;;;;;;;8.11;82.63;93765.41;6329146;22;20156;-78
2023/04/02 03:57:47;;;;;;;6.80;2.87;;;;;;;8.14;80.48;93767.53;6330737;22;20159;-78
2023/04/02 04:00:20;;;;;;;4.87;2.60;;;;;;;8.23;80.33;93771.34;6330345;22;20203;-78
2023/04/02 04:02:52;;;;;;;11.70;3.60;;;;;;;8.26;80.29;93765.72;6329222;22;20156;-79
2023/04/02 04:05:26;;;;;;;3.60;2.53;;;;;;;8.26;80.72;93769.09;6327927;22;20202;-78
2023/04/02 04:07:55;;;;;;;5.10;3.03;;;;;;;8.22;82.99;93767.19;6329347;22;20159;-78
2023/04/02 04:10:25;;;;;;;7.10;2.97;;;;;;;8.23;83.70;93769.53;6329421;22;20171;-77
2023/04/02 04:12:55;;;;;;;3.83;2.70;;;;;;;7.94;85.11;93766.03;6330032;22;20228;-78
2023/04/02 04:15:26;;;;;;;6.13;3.47;;;;;;;8.05;85.40;93780.03;6327997;22;20174;-77
2023/04/02 04:18:02;;;;;;;7.13;3.50;;;;;;;7.96;86.32;93787.28;6328786;22;20159;-77
2023/04/02 04:20:36;;;;;;;9.17;4.20;;;;;;;7.91;86.14;93787.19;6328763;22;20186;-77
2023/04/02 04:23:18;;;;;;;8.03;4.27;;;;;;;7.87;87.05;93791.25;6330058;22;20159;-78
2023/04/02 04:25:49;;;;;;;10.33;3.97;;;;;;;7.93;87.17;93792.94;6330290;22;20156;-78
2023/04/02 04:28:29;;;;;;;5.30;3.10;;;;;;;7.86;87.55;93796.63;6328480;22;20197;-77
2023/04/02 04:31:00;;;;;;;3.40;2.97;;;;;;;7.82;87.79;93785.16;6327121;22;20162;-78
2023/04/02 04:33:38;;;;;;;7.10;2.93;;;;;;;7.80;88.06;93798.28;6329092;22;20156;-78
2023/04/02 04:36:26;;;;;;;7.27;3.80;;;;;;;7.71;88.28;93802.19;6328687;22;20156;-77
2023/04/02 04:38:58;;;;;;;4.50;3.17;;;;;;;7.65;88.21;93799.69;6330193;22;20198;-77
2023/04/02 04:41:28;;;;;;;5.13;2.83;;;;;;;7.55;89.26;93796.88;6329806;22;20490;-77
2023/04/02 04:44:01;;;;;;;5.37;2.80;;;;;;;7.36;90.55;93806.47;6328140;22;20178;-78
2023/04/02 04:46:33;;;;;;;4.00;2.90;;;;;;;7.28;90.81;93807.56;6328054;22;20152;-77
2023/04/02 04:49:06;;;;;;;7.43;3.20;;;;;;;7.28;91.17;93801.59;6326194;22;20195;-77
2023/04/02 04:51:39;;;;;;;5.33;2.83;;;;;;;7.28;91.13;93791.28;6328459;22;20152;-77
2023/04/02 04:54:06;;;;;;;5.00;3.03;;;;;;;7.23;91.48;93798.91;6328595;22;20160;-76
2023/04/02 04:56:33;;;;;;;7.77;3.77;;;;;;;7.27;91.66;93808.56;6326999;22;20163;-77
2023/04/02 04:59:03;;;;;;;4.43;3.30;;;;;;;7.26;91.49;93812.19;6326902;22;20546;-78
2023/04/02 05:01:38;;;;;;;7.57;3.40;;;;;;;7.21;92.01;93808.66;6327251;22;20168;-78
2023/04/02 05:04:12;;;;;;;5.23;3.53;;;;;;;7.20;92.22;93810.47;6330171;22;20152;-76
2023/04/02 05:06:44;;;;;;;5.57;4.13;;;;;;;7.10;92.60;93796.50;6328057;22;20183;-78
2023/04/02 05:09:25;;;;;;;6.80;3.70;;;;;;;7.14;92.95;93810.53;6327730;22;20179;-79
2023/04/02 05:12:05;;;;;;;5.57;3.70;;;;;;;7.21;92.95;93819.00;6328628;22;20182;-79
2023/04/02 05:14:38;;;;;;;9.47;4.00;;;;;;;7.22;93.13;93813.59;6327468;22;20159;-79
2023/04/02 05:17:10;;;;;;;8.27;4.00;;;;;;;7.24;92.45;93819.34;6329111;22;20155;-78
2023/04/02 05:19:42;;;;;;;8.57;4.40;;;;;;;7.18;92.64;93804.72;6330148;22;20630;-78
2023/04/02 05:22:23;;;;;;;8.17;4.37;;;;;;;7.24;92.85;93826.31;6328567;22;20171;-80
2023/04/02 05:24:59;;;;;;;9.63;4.20;;;;;;;7.24;92.44;93818.56;6328875;22;20258;-78
2023/04/02 05:27:36;;;;;;;13.43;4.63;;;;;;;7.26;92.70;93822.50;6327785;22;20980;-78
2023/04/02 05:30:12;;;;;;;7.27;4.33;;;;;;;7.23;93.71;93816.97;6329632;22;20160;-83
2023/04/02 05:32:46;;;;;;;12.97;4.73;;;;;;;7.30;92.78;93828.81;6331619;22;20178;-86
2023/04/02 05:35:18;;;;;;;6.90;4.33;;;;;;;7.27;92.97;93838.81;6331797;22;20163;-86
2023/04/02 05:37:48;;;;;;;6.70;4.67;;;;;;;6.98;93.54;93805.97;6330660;22;20183;-86
2023/04/02 05:40:37;;;;;;;8.63;4.63;;;;;;;7.19;93.06;93834.72;6330968;22;20665;-87
2023/04/02 05:43:10;;;;;;;7.23;4.87;;;;;;;7.13;92.75;93821.88;6319326;22;20624;-84
2023/04/02 05:45:40;;;;;;;6.23;4.30;;;;;;;7.08;93.01;93816.56;6332095;22;20208;-84
2023/04/02 05:48:17;;;;;;;7.80;4.47;;;;;;;6.93;93.23;93791.09;6333385;22;20199;-84
2023/04/02 05:50:47;;;;;;;10.17;4.80;;;;;;;7.26;92.57;93832.06;6319040;22;20686;-86
2023/04/02 05:53:21;;;;;;;6.97;4.87;;;;;;;7.19;91.42;93801.13;6330396;22;20166;-88
2023/04/02 05:55:56;;;;;;;6.47;4.53;;;;;;;7.24;91.51;93814.16;6333996;22;20228;-87
2023/04/02 05:58:29;;;;;;;6.60;4.40;;;;;;;7.50;91.85;93857.00;6334790;22;20213;-87
2023/04/02 06:01:06;;;;;;;8.17;4.90;;;;;;;7.55;92.32;93851.97;6334247;22;20198;-86
2023/04/02 06:03:43;;;;;;;6.90;4.63;;;;;;;7.56;92.62;93837.25;6332518;22;20208;-87
2023/04/02 06:06:17;;;;;;;6.03;3.97;;;;;;;7.55;92.34;93836.44;6333367;22;20156;-87
2023/04/02 06:08:54;;;;;;;5.77;3.87;;;;;;;7.60;91.62;93822.84;6332869;22;20164;-88
2023/04/02 06:11:26;;;;;;;7.53;3.90;;;;;;;7.83;91.35;93839.22;6330181;22;20156;-87
2023/04/02 06:13:53;;;;;;;6.37;3.77;;;;;;;8.03;89.95;93849.28;6331579;22;20872;-87
2023/04/02 06:16:25;;;;;;;5.30;3.50;;;;;;;8.09;89.90;93852.78;6333268;22;20171;-87
2023/04/02 06:18:51;;;;;;;8.93;3.87;;;;;;;8.00;89.31;93821.28;6333267;22;20155;-88
2023/04/02 06:21:20;;;;;;;5.50;4.33;;;;;;;8.34;89.27;93854.19;6332688;22;20202;-87
2023/04/02 06:23:53;;;;;;;7.93;3.40;;;;;;;8.34;88.79;93832.72;6333371;22;20168;-85
2023/04/02 06:26:27;;;;;;;6.07;3.60;;;;;;;8.57;89.39;93852.66;6334183;22;20167;-87
2023/04/02 06:29:00;;;;;;;4.90;3.30;;;;;;;8.64;88.46;93842.97;6333397;22;20168;-86
2023/04/02 06:31:34;;;;;;;4.67;3.00;;;;;;;8.79;88.23;93857.03;6340462;22;20710;-83
2023/04/02 06:34:01;;;;;;;8.93;4.87;;;;;;;8.92;88.68;93851.59;6333131;22;20160;-85
2023/04/02 06:36:28;;;;;;;4.73;3.30;;;;;;;8.88;88.05;93842.72;6333332;22;20186;-86
2023/04/02 06:39:03;;;;;;;7.90;3.50;;;;;;;8.99;88.71;93847.09;6334555;22;20186;-87
2023/04/02 06:41:30;;;;;;;5.90;3.67;;;;;;;9.00;88.60;93848.66;6325303;22;20437;-88
2023/04/02 06:44:01;;;;;;;5.13;3.27;;;;;;;8.96;88.90;93826.84;6329730;22;20171;-82
2023/04/02 06:46:32;;;;;;;5.40;2.60;;;;;;;9.23;87.46;93852.25;6331222;22;20148;-83
2023/04/02 06:49:07;;;;;;;4.77;2.60;;;;;;;9.29;86.85;93854.72;6329475;22;20238;-83
2023/04/02 06:51:37;;;;;;;4.93;2.90;;;;;;;9.35;86.75;93868.56;6325996;22;20151;-83
2023/04/02 06:54:06;;;;;;;8.23;2.90;;;;;;;9.46;86.50;93850.38;6332001;22;20221;-84
2023/04/02 06:56:41;;;;;;;6.60;2.90;;;;;;;9.60;85.33;93859.47;6331996;22;20163;-84
2023/04/02 06:59:09;;;;;;;3.53;2.90;;;;;;;9.71;86.20;93868.22;6332692;22;20179;-83
2023/04/02 07:01:40;;;;;;;6.47;2.30;;;;;;;9.85;84.06;93873.91;6331545;22;20167;-83
2023/04/02 07:04:10;;;;;;;4.03;2.63;;;;;;;9.80;82.85;93851.25;6333263;22;20152;-83
2023/04/02 07:06:37;;;;;;;4.33;2.10;;;;;;;10.08;78.75;93868.59;6332321;22;20511;-85
2023/04/02 07:09:06;;;;;;;3.53;1.90;;;;;;;10.08;76.70;93853.81;6332259;22;20171;-84
2023/04/02 07:11:33;;;;;;;2.57;1.53;;;;;;;10.42;75.14;93883.22;6332124;22;20191;-81
2023/04/02 07:14:01;;;;;;;2.73;1.60;;;;;;;10.57;74.02;93888.66;6332466;22;21006;-84
2023/04/02 07:16:30;;;;;;;2.57;1.60;;;;;;;10.70;73.14;93877.97;6332016;22;20619;-82
2023/04/02 07:18:58;;;;;;;2.70;1.93;;;;;;;10.75;72.54;93875.44;6331341;22;20645;-82
2023/04/02 07:21:26;;;;;;;2.27;1.63;;;;;;;10.83;73.33;93889.84;6331244;22;20219;-81
2023/04/02 07:23:53;;;;;;;4.63;2.57;;;;;;;10.85;72.07;93894.81;6330840;22;20677;-81
2023/04/02 07:26:24;;;;;;;2.17;1.70;;;;;;;10.81;72.22;93897.09;6332170;22;20242;-82
2023/04/02 07:28:51;;;;;;;1.93;1.37;;;;;;;10.80;72.78;93896.28;6329591;22;20198;-82
2023/04/02 07:31:20;;;;;;;1.60;1.43;;;;;;;10.86;71.33;93907.56;6328022;22;20187;-81
2023/04/02 07:33:47;;;;;;;1.77;1.30;;;;;;;10.86;71.29;93907.56;6329342;22;20229;-81
2023/04/02 07:36:16;;;;;;;1.70;1.40;;;;;;;10.90;70.85;93898.25;6331574;22;20560;-81
2023/04/02 07:38:43;;;;;;;3.03;1.40;;;;;;;10.76;71.88;93881.44;6331155;22;20167;-81
2023/04/02 07:41:10;;;;;;;1.67;1.40;;;;;;;10.91;70.82;93897.22;6330161;22;20907;-81
2023/04/02 07:43:39;;;;;;;2.20;1.37;;;;;;;10.91;71.24;93910.22;6330470;22;20532;-80
2023/04/02 07:46:07;;;;;;;2.10;1.43;;;;;;;11.01;71.16;93899.97;6330409;22;20175;-82
2023/04/02 07:48:34;;;;;;;2.27;1.67;;;;;;;11.13;70.99;93889.47;6331683;22;20202;-82
2023/04/02 07:51:02;;;;;;;3.83;1.70;;;;;;;11.29;70.45;93901.66;6330253;22;20201;-83
2023/04/02 07:53:32;;;;;;;2.40;1.70;;;;;;;11.34;69.29;93899.91;6328953;22;20208;-82
2023/04/02 07:56:01;;;;;;;1.63;1.40;;;;;;;11.39;68.71;93902.59;6330372;22;20232;-81
2023/04/02 07:59:03;;;;;;;3.53;1.70;;;;;;;11.62;68.35;93905.97;6329315;22;20249;-81
2023/04/02 08:01:33;;;;;;;2.17;1.50;;;;;;;11.62;67.64;93891.16;6307196;22;20201;-85
2023/04/02 08:04:02;;;;;;;3.27;1.50;;;;;;;11.70;67.34;93906.38;6328110;22;20170;-86
2023/04/02 08:06:29;;;;;;;2.47;1.30;;;;;;;11.69;66.84;93906.56;6330425;22;20167;-85
2023/04/02 08:08:57;;;;;;;1.30;1.20;;;;;;;11.79;65.88;93909.31;6331664;22;20167;-84
2023/04/02 08:11:24;;;;;;;1.83;1.70;;;;;;;11.81;66.76;93915.06;6331112;22;20168;-85
2023/04/02 08:13:52;;;;;;;2.40;1.33;;;;;;;11.79;66.98;93906.72;6333457;22;20167;-84
2023/04/02 08:16:19;;;;;;;1.80;1.47;;;;;;;11.81;67.29;93908.03;6331436;22;20967;-90
2023/04/02 08:18:50;;;;;;;2.77;1.70;;;;;;;11.87;66.91;93916.69;6331713;22;20199;-82
2023/04/02 08:21:16;;;;;;;3.07;1.40;;;;;;;12.02;67.36;93916.88;6330816;22;20191;-84
2023/04/02 08:23:43;;;;;;;2.17;1.70;;;;;;;12.05;66.42;93910.38;6332344;22;20541;-84
2023/04/02 08:26:10;;;;;;;4.07;1.80;;;;;;;12.26;67.91;93920.78;6332222;22;20170;-83
2023/04/02 08:28:37;;;;;;;1.67;1.50;;;;;;;12.37;67.77;93929.47;6332156;22;20168;-82
2023/04/02 08:31:07;;;;;;;1.60;1.50;;;;;;;12.41;68.01;93922.72;6331760;22;20159;-83
2023/04/02 08:33:34;;;;;;;2.57;1.50;;;;;;;12.48;68.38;93923.31;6331437;22;20155;-84
2023/04/02 08:36:01;;;;;;;3.53;1.40;;;;;;;12.64;67.43;93919.03;6332060;22;20170;-83
2023/04/02 08:38:28;;;;;;;1.90;1.50;;;;;;;12.70;67.44;93929.22;6331446;22;20164;-83
2023/04/02 08:41:01;;;;;;;1.63;1.50;;;;;;;12.72;66.19;93923.78;6331562;22;20194;-83
2023/04/02 08:43:53;;;;;;;1.77;1.30;;;;;;;12.73;65.77;93939.16;6331035;22;20513;-83
2023/04/02 08:46:26;;;;;;;2.97;1.70;;;;;;;12.70;66.34;93915.44;6331417;22;20235;-82
2023/04/02 08:49:02;;;;;;;3.10;1.33;;;;;;;12.85;66.12;93931.97;6332075;22;20191;-83
2023/04/02 08:51:33;;;;;;;3.83;1.57;;;;;;;12.96;66.49;93936.22;6330852;22;20520;-85
2023/04/02 08:54:03;;;;;;;1.87;1.30;;;;;;;13.07;65.81;93935.28;6330200;22;20654;-85
2023/04/02 08:56:36;;;;;;;2.77;1.70;;;;;;;13.19;63.92;93931.72;6330985;22;20227;-85
2023/04/02 08:59:12;;;;;;;2.37;1.80;;;;;;;13.34;62.30;93923.97;6330816;22;20209;-84
2023/04/02 09:01:50;;;;;;;2.73;1.67;;;;;;;13.30;63.43;93918.47;6337495;22;20198;-86
2023/04/02 09:04:20;;;;;;;1.77;1.43;;;;;;;13.47;64.62;93920.91;6332907;22;20202;-85
2023/04/02 09:06:48;;;;;;;2.50;1.70;;;;;;;13.68;64.57;93933.00;6332904;22;20164;-84
2023/04/02 09:09:18;;;;;;;2.20;1.40;;;;;;;13.74;59.75;93924.16;6331601;22;20164;-84
2023/04/02 09:11:52;;;;;;;2.20;1.50;;;;;;;13.67;59.17;93913.19;6330857;22;20616;-84
2023/04/02 09:14:24;;;;;;;4.10;1.53;;;;;;;13.94;59.18;93929.47;6332381;22;20147;-84
2023/04/02 09:16:55;;;;;;;3.47;1.80;;;;;;;14.12;60.33;93910.72;6333799;22;20191;-85
2023/04/02 09:19:23;;;;;;;2.60;1.47;;;;;;;14.48;60.98;93927.31;6333722;22;20159;-84
2023/04/02 09:22:04;;;;;;;2.10;1.50;;;;;;;14.64;60.24;93923.63;6332561;22;20191;-85
2023/04/02 09:24:31;;;;;;;2.13;1.47;;;;;;;14.74;58.70;93941.97;6332779;22;20151;-84
2023/04/02 09:26:58;;;;;;;2.50;1.40;;;;;;;14.73;57.09;93939.59;6333643;22;20167;-81
2023/04/02 09:29:44;;;;;;;1.43;1.30;;;;;;;14.68;59.01;93937.00;6331609;22;20156;-81
2023/04/02 09:32:26;;;;;;;1.60;1.30;;;;;;;14.62;59.91;93930.19;6332323;22;20151;-86
2023/04/02 09:35:11;;;;;;;3.37;1.90;;;;;;;14.61;59.24;93932.00;6333140;22;20599;-81
2023/04/02 09:37:39;;;;;;;2.73;1.60;;;;;;;14.73;57.48;93926.53;6331420;22;20159;-82
2023/04/02 09:40:40;;;;;;;2.10;1.70;;;;;;;15.16;56.35;93925.19;6331785;22;20484;-83
2023/04/02 09:43:12;;;;;;;3.97;1.70;;;;;;;15.14;57.11;93911.59;6265069;22;20175;-82
2023/04/02 09:45:44;;;;;;;18.70;8.40;;;;;;;15.01;57.81;93912.91;6331840;22;20156;-81
2023/04/02 09:48:24;;;;;;;10.53;3.40;;;;;;;15.05;56.30;93926.25;6329664;22;20265;-81
2023/04/02 09:51:11;;;;;;;1.40;1.27;;;;;;;14.82;54.45;93911.88;6330731;22;20152;-80
2023/04/02 09:53:40;;;;;;;3.40;2.17;;;;;;;14.52;54.51;93919.69;6333226;22;20512;-81
2023/04/02 09:56:10;;;;;;;5.63;2.50;;;;;;;14.42;55.16;93914.47;6333008;22;20650;-83
2023/04/02 09:58:37;;;;;;;5.47;2.87;;;;;;;14.40;54.21;93887.81;6334139;22;20513;-84
2023/04/02 10:01:07;;;;;;;27.43;14.17;;;;;;;14.52;55.28;93885.69;6335513;22;20191;-79
2023/04/02 10:03:35;;;;;;;2.20;1.87;;;;;;;14.94;53.67;93917.63;6332336;22;20199;-84
2023/04/02 10:06:09;;;;;;;3.33;1.30;;;;;;;14.98;53.40;93889.88;6333784;22;20695;-84
2023/04/02 10:08:38;;;;;;;5.00;2.37;;;;;;;15.04;52.85;93895.88;6334119;22;20152;-84
2023/04/02 10:11:09;;;;;;;5.30;2.00;;;;;;;14.95;54.47;93872.09;6334967;22;20156;-86
2023/04/02 10:13:46;;;;;;;11.30;9.40;;;;;;;15.16;56.19;93889.34;6337843;22;20586;-85
2023/04/02 10:16:17;;;;;;;2.20;1.70;;;;;;;15.59;57.70;93898.44;6334839;22;20157;-82
2023/04/02 10:18:50;;;;;;;6.10;1.60;;;;;;;16.20;66.04;93890.28;6335371;22;20156;-78
2023/04/02 10:21:21;;;;;;;1.60;1.50;;;;;;;16.71;56.46;93896.81;6335751;22;20242;-82
2023/04/02 10:23:48;;;;;;;2.83;1.87;;;;;;;17.17;55.01;93896.44;6335618;22;20166;-84
2023/04/02 10:26:32;;;;;;;1.27;1.10;;;;;;;17.44;53.39;93894.06;6334380;22;20164;-83
2023/04/02 10:29:30;;;;;;;3.83;1.40;;;;;;;17.84;52.21;93896.25;6334972;22;20154;-83
2023/04/02 10:32:01;;;;;;;1.70;1.23;;;;;;;18.20;51.26;93887.94;6326064;22;20170;-84
2023/04/02 10:34:36;;;;;;;1.77;1.53;;;;;;;18.49;50.24;93912.28;6334999;22;20205;-85
2023/04/02 10:37:21;;;;;;;1.70;1.60;;;;;;;18.27;49.26;93899.66;6333075;22;20167;-85
2023/04/02 10:39:53;;;;;;;1.23;1.10;;;;;;;18.27;48.54;93901.53;6333931;22;20626;-83
2023/04/02 10:42:30;;;;;;;2.63;1.48;;;;;;;18.49;48.56;93909.66;6333341;22;20193;-84
2023/04/02 10:45:04;;;;;;;1.35;1.05;;;;;;;18.87;49.12;93911.19;6333481;22;20151;-85
2023/04/02 10:47:39;;;;;;;2.22;1.48;;;;;;;19.15;47.56;93904.94;6331960;22;20202;-84
2023/04/02 10:50:28;;;;;;;6.38;1.63;;;;;;;19.24;46.87;93913.75;6330876;22;20614;-84
2023/04/02 10:53:04;;;;;;;1.30;1.20;;;;;;;19.08;47.20;93906.38;6331329;22;20194;-86
2023/04/02 10:55:38;;;;;;;1.92;1.48;;;;;;;19.25;45.75;93902.13;6332227;22;20234;-84
2023/04/02 10:58:08;;;;;;;2.35;1.27;;;;;;;19.30;46.18;93903.91;6331811;22;20436;-88
2023/04/02 11:00:41;;;;;;;1.52;1.25;;;;;;;19.11;46.20;93898.69;6331312;22;20164;-88
2023/04/02 11:03:14;;;;;;;1.30;1.20;;;;;;;19.13;46.56;93893.91;6330836;22;20652;-87
2023/04/02 11:05:46;;;;;;;2.72;1.02;;;;;;;19.13;45.72;93896.53;6331106;22;20159;-88
2023/04/02 11:08:18;;;;;;;1.48;1.23;;;;;;;19.26;45.15;93892.38;6331720;22;20155;-87
2023/04/02 11:10:50;;;;;;;1.20;1.10;;;;;;;19.37;44.65;93904.28;6331003;22;20156;-85
2023/04/02 11:13:26;;;;;;;1.80;1.20;;;;;;;19.48;43.48;93891.78;6330022;22;20155;-85
2023/04/02 11:15:53;;;;;;;1.75;1.40;;;;;;;19.59;43.48;93901.84;6330300;22;20151;-86
2023/04/02 11:18:27;;;;;;;1.95;1.70;;;;;;;19.55;43.71;93895.56;6329982;22;20172;-87
2023/04/02 11:21:05;;;;;;;1.15;1.10;;;;;;;19.63;42.53;93904.66;6331724;22;20178;-84
2023/04/02 11:23:39;;;;;;;1.20;1.10;;;;;;;19.71;42.50;93894.19;6331622;22;20626;-84
2023/04/02 11:26:46;;;;;;;2.97;1.50;;;;;;;19.85;41.41;93891.59;6331638;22;20173;-88
2023/04/02 11:29:33;;;;;;;1.10;1.00;;;;;;;20.28;41.26;93895.47;6330845;22;20159;-84
2023/04/02 11:32:29;;;;;;;2.13;1.40;;;;;;;20.57;40.47;93896.97;6331186;22;20154;-81
2023/04/02 11:35:25;;;;;;;1.55;1.23;;;;;;;20.22;39.74;93872.88;6331730;22;20189;-84
2023/04/02 11:37:55;;;;;;;2.63;1.20;;;;;;;19.71;40.07;93898.72;6327801;22;20233;-86
2023/04/02 11:40:48;;;;;;;2.63;1.10;;;;;;;19.60;41.71;93884.13;6327500;22;20174;-85
2023/04/02 11:43:50;;;;;;;1.88;1.40;;;;;;;19.91;42.04;93879.88;6328785;22;20505;-86
2023/04/02 11:49:56;;;;;;;2.70;1.58;;;;;;;19.97;41.10;93886.56;5146826;27;20312;-86
2023/04/02 11:52:26;;;;;;;1.33;1.20;;;;;;;19.87;40.68;93878.09;5118284;28;20196;-85
2023/04/02 11:55:23;;;;;;;1.55;1.45;;;;;;;19.71;41.76;93880.25;5109037;28;20192;-85
2023/04/02 11:58:31;;;;;;;1.20;1.00;;;;;;;20.18;40.58;93865.81;5112814;28;20203;-89
2023/04/02 12:01:33;;;;;;;2.50;1.10;;;;;;;20.79;40.50;93881.91;5118455;28;20249;-87
2023/04/02 12:04:51;;;;;;;1.88;1.40;;;;;;;20.17;39.86;93880.88;5118435;28;20191;-86
2023/04/02 12:07:50;;;;;;;2.38;1.30;;;;;;;20.19;40.46;93880.59;5093642;28;20924;-86
2023/04/02 12:10:21;;;;;;;5.18;1.85;;;;;;;20.64;39.80;93871.69;5110531;28;20200;-86
2023/04/02 12:12:48;;;;;;;1.60;1.23;;;;;;;21.10;38.04;93883.84;5117851;28;20211;-88
2023/04/02 12:15:43;;;;;;;2.28;1.23;;;;;;;21.16;37.17;93872.84;5116608;28;20203;-85
2023/04/02 12:18:16;;;;;;;2.10;1.17;;;;;;;21.40;37.18;93886.50;5098179;28;20274;-87